sensor_id;sensor_type;location;lat;lon;timestamp;P1;durP1;ratioP1;P2;durP2;ratioP2
52650;SDS011;38537;47.226;39.702;2023-07-13T00:01:15;5.30;;;4.80;;
52650;SDS011;38537;47.226;39.702;2023-07-13T00:03:44;7.72;;;6.72;;
52650;SDS011;38537;47.226;39.702;2023-07-13T00:06:11;7.05;;;6.00;;
52650;SDS011;38537;47.226;39.702;2023-07-13T00:08:39;8.50;;;5.85;;
52650;SDS011;38537;47.226;39.702;2023-07-13T00:11:07;7.28;;;5.35;;
52650;SDS011;38537;47.226;39.702;2023-07-13T00:13:34;8.30;;;4.97;;
52650;SDS011;38537;47.226;39.702;2023-07-13T00:16:05;8.60;;;5.43;;
52650;SDS011;38537;47.226;39.702;2023-07-13T00:18:32;6.72;;;4.78;;
52650;SDS011;38537;47.226;39.702;2023-07-13T00:21:00;7.45;;;4.72;;
52650;SDS011;38537;47.226;39.702;2023-07-13T00:23:36;10.50;;;5.63;;
52650;SDS011;38537;47.226;39.702;2023-07-13T00:26:07;20.08;;;9.18;;
52650;SDS011;38537;47.226;39.702;2023-07-13T00:28:37;15.35;;;7.63;;
52650;SDS011;38537;47.226;39.702;2023-07-13T00:31:06;13.50;;;7.15;;
52650;SDS011;38537;47.226;39.702;2023-07-13T00:33:35;12.48;;;7.25;;
52650;SDS011;38537;47.226;39.702;2023-07-13T00:36:03;12.00;;;6.03;;
52650;SDS011;38537;47.226;39.702;2023-07-13T00:38:31;7.38;;;4.97;;
52650;SDS011;38537;47.226;39.702;2023-07-13T00:40:59;8.90;;;4.55;;
52650;SDS011;38537;47.226;39.702;2023-07-13T00:43:28;7.38;;;4.90;;
52650;SDS011;38537;47.226;39.702;2023-07-13T00:49:06;6.78;;;3.92;;
52650;SDS011;38537;47.226;39.702;2023-07-13T00:51:39;5.25;;;3.75;;
52650;SDS011;38537;47.226;39.702;2023-07-13T00:54:13;8.77;;;4.20;;
52650;SDS011;38537;47.226;39.702;2023-07-13T00:56:47;8.00;;;4.25;;
52650;SDS011;38537;47.226;39.702;2023-07-13T00:59:17;5.97;;;4.10;;
52650;SDS011;38537;47.226;39.702;2023-07-13T01:01:47;6.65;;;3.75;;
52650;SDS011;38537;47.226;39.702;2023-07-13T01:04:16;5.55;;;3.88;;
52650;SDS011;38537;47.226;39.702;2023-07-13T01:06:44;6.78;;;3.90;;
52650;SDS011;38537;47.226;39.702;2023-07-13T01:09:15;5.50;;;3.80;;
52650;SDS011;38537;47.226;39.702;2023-07-13T01:11:42;4.72;;;3.88;;
52650;SDS011;38537;47.226;39.702;2023-07-13T01:14:12;8.68;;;3.60;;
52650;SDS011;38537;47.226;39.702;2023-07-13T01:16:44;4.90;;;3.92;;
52650;SDS011;38537;47.226;39.702;2023-07-13T01:22:08;7.78;;;4.57;;
52650;SDS011;38537;47.226;39.702;2023-07-13T01:24:41;7.20;;;4.50;;
52650;SDS011;38537;47.226;39.702;2023-07-13T01:27:11;9.27;;;4.57;;
52650;SDS011;38537;47.226;39.702;2023-07-13T01:29:41;8.38;;;4.95;;
52650;SDS011;38537;47.226;39.702;2023-07-13T01:32:10;6.00;;;4.07;;
52650;SDS011;38537;47.226;39.702;2023-07-13T01:34:43;6.60;;;4.47;;
52650;SDS011;38537;47.226;39.702;2023-07-13T01:37:11;5.30;;;4.20;;
52650;SDS011;38537;47.226;39.702;2023-07-13T01:39:39;6.03;;;4.22;;
52650;SDS011;38537;47.226;39.702;2023-07-13T01:42:06;8.48;;;4.20;;
52650;SDS011;38537;47.226;39.702;2023-07-13T01:44:34;6.55;;;4.28;;
52650;SDS011;38537;47.226;39.702;2023-07-13T01:47:03;12.02;;;4.40;;
52650;SDS011;38537;47.226;39.702;2023-07-13T01:49:32;6.93;;;4.65;;
52650;SDS011;38537;47.226;39.702;2023-07-13T01:51:59;12.82;;;4.78;;
52650;SDS011;38537;47.226;39.702;2023-07-13T01:54:26;7.55;;;4.45;;
52650;SDS011;38537;47.226;39.702;2023-07-13T01:56:54;6.55;;;4.65;;
52650;SDS011;38537;47.226;39.702;2023-07-13T01:59:21;9.45;;;4.65;;
52650;SDS011;38537;47.226;39.702;2023-07-13T02:01:49;9.02;;;4.90;;
52650;SDS011;38537;47.226;39.702;2023-07-13T02:04:17;5.97;;;4.10;;
52650;SDS011;38537;47.226;39.702;2023-07-13T02:06:44;6.88;;;4.82;;
52650;SDS011;38537;47.226;39.702;2023-07-13T02:09:15;8.18;;;4.75;;
52650;SDS011;38537;47.226;39.702;2023-07-13T02:11:43;7.32;;;4.40;;
52650;SDS011;38537;47.226;39.702;2023-07-13T02:14:10;9.60;;;4.20;;
52650;SDS011;38537;47.226;39.702;2023-07-13T02:16:38;6.93;;;3.92;;
52650;SDS011;38537;47.226;39.702;2023-07-13T02:19:05;7.47;;;4.10;;
52650;SDS011;38537;47.226;39.702;2023-07-13T02:21:33;7.40;;;3.40;;
52650;SDS011;38537;47.226;39.702;2023-07-13T02:24:00;6.97;;;3.63;;
52650;SDS011;38537;47.226;39.702;2023-07-13T02:26:28;4.90;;;2.58;;
52650;SDS011;38537;47.226;39.702;2023-07-13T02:28:55;3.67;;;2.60;;
52650;SDS011;38537;47.226;39.702;2023-07-13T02:31:23;4.10;;;2.50;;
52650;SDS011;38537;47.226;39.702;2023-07-13T02:33:53;3.30;;;2.35;;
52650;SDS011;38537;47.226;39.702;2023-07-13T02:36:20;5.85;;;3.10;;
52650;SDS011;38537;47.226;39.702;2023-07-13T02:38:49;4.88;;;2.70;;
52650;SDS011;38537;47.226;39.702;2023-07-13T02:41:17;4.32;;;2.83;;
52650;SDS011;38537;47.226;39.702;2023-07-13T02:43:45;5.07;;;2.60;;
52650;SDS011;38537;47.226;39.702;2023-07-13T02:46:13;4.45;;;2.75;;
52650;SDS011;38537;47.226;39.702;2023-07-13T02:48:41;5.43;;;2.80;;
52650;SDS011;38537;47.226;39.702;2023-07-13T02:51:08;4.22;;;3.20;;
52650;SDS011;38537;47.226;39.702;2023-07-13T02:53:36;3.55;;;2.53;;
52650;SDS011;38537;47.226;39.702;2023-07-13T02:56:05;3.92;;;3.00;;
52650;SDS011;38537;47.226;39.702;2023-07-13T02:58:34;5.40;;;2.90;;
52650;SDS011;38537;47.226;39.702;2023-07-13T03:01:07;4.07;;;2.83;;
52650;SDS011;38537;47.226;39.702;2023-07-13T03:03:36;7.45;;;2.40;;
52650;SDS011;38537;47.226;39.702;2023-07-13T03:06:04;4.78;;;2.70;;
52650;SDS011;38537;47.226;39.702;2023-07-13T03:08:43;4.63;;;2.78;;
52650;SDS011;38537;47.226;39.702;2023-07-13T03:11:13;6.47;;;3.10;;
52650;SDS011;38537;47.226;39.702;2023-07-13T03:13:44;5.35;;;3.20;;
52650;SDS011;38537;47.226;39.702;2023-07-13T03:16:12;7.38;;;3.22;;
52650;SDS011;38537;47.226;39.702;2023-07-13T03:18:47;6.07;;;3.72;;
52650;SDS011;38537;47.226;39.702;2023-07-13T03:21:15;6.13;;;3.70;;
52650;SDS011;38537;47.226;39.702;2023-07-13T03:23:43;8.02;;;4.43;;
52650;SDS011;38537;47.226;39.702;2023-07-13T03:26:12;12.02;;;4.55;;
52650;SDS011;38537;47.226;39.702;2023-07-13T03:28:42;6.72;;;4.50;;
52650;SDS011;38537;47.226;39.702;2023-07-13T03:31:16;25.35;;;9.98;;
52650;SDS011;38537;47.226;39.702;2023-07-13T03:33:46;14.80;;;6.22;;
52650;SDS011;38537;47.226;39.702;2023-07-13T03:36:19;9.40;;;4.93;;
52650;SDS011;38537;47.226;39.702;2023-07-13T03:38:52;7.78;;;4.30;;
52650;SDS011;38537;47.226;39.702;2023-07-13T03:41:26;8.93;;;4.20;;
52650;SDS011;38537;47.226;39.702;2023-07-13T03:43:54;7.20;;;4.22;;
52650;SDS011;38537;47.226;39.702;2023-07-13T03:46:27;9.40;;;4.13;;
52650;SDS011;38537;47.226;39.702;2023-07-13T03:48:56;8.15;;;4.38;;
52650;SDS011;38537;47.226;39.702;2023-07-13T03:51:24;8.30;;;3.80;;
52650;SDS011;38537;47.226;39.702;2023-07-13T03:53:52;7.47;;;3.95;;
52650;SDS011;38537;47.226;39.702;2023-07-13T03:56:20;5.18;;;3.92;;
52650;SDS011;38537;47.226;39.702;2023-07-13T03:58:48;10.13;;;4.32;;
52650;SDS011;38537;47.226;39.702;2023-07-13T04:01:19;9.00;;;4.00;;
52650;SDS011;38537;47.226;39.702;2023-07-13T04:03:49;6.45;;;3.55;;
52650;SDS011;38537;47.226;39.702;2023-07-13T04:06:18;10.60;;;3.92;;
52650;SDS011;38537;47.226;39.702;2023-07-13T04:08:52;8.48;;;4.00;;
52650;SDS011;38537;47.226;39.702;2023-07-13T04:11:23;5.82;;;3.20;;
52650;SDS011;38537;47.226;39.702;2023-07-13T04:13:52;9.18;;;3.50;;
52650;SDS011;38537;47.226;39.702;2023-07-13T04:16:20;6.95;;;3.20;;
52650;SDS011;38537;47.226;39.702;2023-07-13T04:18:48;8.20;;;3.60;;
52650;SDS011;38537;47.226;39.702;2023-07-13T04:21:22;6.20;;;3.50;;
52650;SDS011;38537;47.226;39.702;2023-07-13T04:23:49;5.97;;;3.50;;
52650;SDS011;38537;47.226;39.702;2023-07-13T04:26:18;6.45;;;3.67;;
52650;SDS011;38537;47.226;39.702;2023-07-13T04:28:48;10.38;;;3.53;;
52650;SDS011;38537;47.226;39.702;2023-07-13T04:31:17;4.65;;;3.10;;
52650;SDS011;38537;47.226;39.702;2023-07-13T04:33:45;5.38;;;3.60;;
52650;SDS011;38537;47.226;39.702;2023-07-13T04:36:15;9.05;;;3.95;;
52650;SDS011;38537;47.226;39.702;2023-07-13T04:38:43;5.55;;;3.28;;
52650;SDS011;38537;47.226;39.702;2023-07-13T04:41:11;8.13;;;3.47;;
52650;SDS011;38537;47.226;39.702;2023-07-13T04:43:40;4.75;;;2.90;;
52650;SDS011;38537;47.226;39.702;2023-07-13T04:46:08;6.25;;;2.72;;
52650;SDS011;38537;47.226;39.702;2023-07-13T04:48:38;4.10;;;1.70;;
52650;SDS011;38537;47.226;39.702;2023-07-13T04:51:06;5.20;;;2.22;;
52650;SDS011;38537;47.226;39.702;2023-07-13T04:53:34;7.03;;;2.55;;
52650;SDS011;38537;47.226;39.702;2023-07-13T04:56:02;4.88;;;2.40;;
52650;SDS011;38537;47.226;39.702;2023-07-13T04:58:31;6.45;;;2.45;;
52650;SDS011;38537;47.226;39.702;2023-07-13T05:01:04;7.22;;;2.50;;
52650;SDS011;38537;47.226;39.702;2023-07-13T05:03:33;5.85;;;2.20;;
52650;SDS011;38537;47.226;39.702;2023-07-13T05:06:02;5.82;;;2.47;;
52650;SDS011;38537;47.226;39.702;2023-07-13T05:08:33;2.22;;;1.65;;
52650;SDS011;38537;47.226;39.702;2023-07-13T05:11:02;5.82;;;2.00;;
52650;SDS011;38537;47.226;39.702;2023-07-13T05:13:30;2.20;;;1.35;;
52650;SDS011;38537;47.226;39.702;2023-07-13T05:15:59;2.75;;;1.60;;
52650;SDS011;38537;47.226;39.702;2023-07-13T05:18:29;2.85;;;1.73;;
52650;SDS011;38537;47.226;39.702;2023-07-13T05:21:02;4.13;;;1.95;;
52650;SDS011;38537;47.226;39.702;2023-07-13T05:23:32;4.03;;;2.10;;
52650;SDS011;38537;47.226;39.702;2023-07-13T05:26:00;4.15;;;2.15;;
52650;SDS011;38537;47.226;39.702;2023-07-13T05:28:31;5.28;;;2.63;;
52650;SDS011;38537;47.226;39.702;2023-07-13T05:31:00;4.35;;;1.90;;
52650;SDS011;38537;47.226;39.702;2023-07-13T05:33:27;3.08;;;1.95;;
52650;SDS011;38537;47.226;39.702;2023-07-13T05:35:55;5.35;;;2.30;;
52650;SDS011;38537;47.226;39.702;2023-07-13T05:38:22;4.03;;;2.15;;
52650;SDS011;38537;47.226;39.702;2023-07-13T05:40:50;4.78;;;2.22;;
52650;SDS011;38537;47.226;39.702;2023-07-13T05:43:18;3.15;;;1.88;;
52650;SDS011;38537;47.226;39.702;2023-07-13T05:45:45;3.97;;;1.88;;
52650;SDS011;38537;47.226;39.702;2023-07-13T05:48:14;6.30;;;1.40;;
52650;SDS011;38537;47.226;39.702;2023-07-13T05:50:41;2.55;;;1.45;;
52650;SDS011;38537;47.226;39.702;2023-07-13T05:53:08;1.40;;;1.20;;
52650;SDS011;38537;47.226;39.702;2023-07-13T05:55:36;2.53;;;1.30;;
52650;SDS011;38537;47.226;39.702;2023-07-13T05:58:09;1.70;;;1.25;;
52650;SDS011;38537;47.226;39.702;2023-07-13T06:00:36;3.28;;;1.60;;
52650;SDS011;38537;47.226;39.702;2023-07-13T06:03:04;3.22;;;1.30;;
52650;SDS011;38537;47.226;39.702;2023-07-13T06:05:39;1.27;;;1.17;;
52650;SDS011;38537;47.226;39.702;2023-07-13T06:08:07;2.33;;;1.30;;
52650;SDS011;38537;47.226;39.702;2023-07-13T06:10:35;4.22;;;1.40;;
52650;SDS011;38537;47.226;39.702;2023-07-13T06:13:03;3.10;;;1.48;;
52650;SDS011;38537;47.226;39.702;2023-07-13T06:15:30;3.60;;;1.40;;
52650;SDS011;38537;47.226;39.702;2023-07-13T06:17:58;2.65;;;1.60;;
52650;SDS011;38537;47.226;39.702;2023-07-13T06:20:25;2.80;;;1.50;;
52650;SDS011;38537;47.226;39.702;2023-07-13T06:22:53;3.00;;;1.40;;
52650;SDS011;38537;47.226;39.702;2023-07-13T06:25:21;2.53;;;1.70;;
52650;SDS011;38537;47.226;39.702;2023-07-13T06:27:48;1.25;;;1.10;;
52650;SDS011;38537;47.226;39.702;2023-07-13T06:30:18;2.20;;;1.20;;
52650;SDS011;38537;47.226;39.702;2023-07-13T06:32:45;1.40;;;1.30;;
52650;SDS011;38537;47.226;39.702;2023-07-13T06:35:12;3.25;;;1.35;;
52650;SDS011;38537;47.226;39.702;2023-07-13T06:37:42;4.93;;;1.70;;
52650;SDS011;38537;47.226;39.702;2023-07-13T06:40:09;2.92;;;1.48;;
52650;SDS011;38537;47.226;39.702;2023-07-13T06:42:37;1.92;;;1.20;;
52650;SDS011;38537;47.226;39.702;2023-07-13T06:45:06;1.50;;;1.40;;
52650;SDS011;38537;47.226;39.702;2023-07-13T06:47:34;1.58;;;1.20;;
52650;SDS011;38537;47.226;39.702;2023-07-13T06:50:01;3.42;;;1.60;;
52650;SDS011;38537;47.226;39.702;2023-07-13T06:52:30;1.38;;;1.20;;
52650;SDS011;38537;47.226;39.702;2023-07-13T06:54:57;3.35;;;1.30;;
52650;SDS011;38537;47.226;39.702;2023-07-13T06:57:24;2.20;;;1.30;;
52650;SDS011;38537;47.226;39.702;2023-07-13T06:59:52;1.50;;;1.33;;
52650;SDS011;38537;47.226;39.702;2023-07-13T07:02:19;2.20;;;1.27;;
52650;SDS011;38537;47.226;39.702;2023-07-13T07:04:46;2.42;;;1.23;;
52650;SDS011;38537;47.226;39.702;2023-07-13T07:07:14;4.13;;;1.38;;
52650;SDS011;38537;47.226;39.702;2023-07-13T07:09:41;2.00;;;1.40;;
52650;SDS011;38537;47.226;39.702;2023-07-13T07:12:08;2.25;;;1.30;;
52650;SDS011;38537;47.226;39.702;2023-07-13T07:14:39;4.38;;;1.63;;
52650;SDS011;38537;47.226;39.702;2023-07-13T07:17:06;2.55;;;1.35;;
52650;SDS011;38537;47.226;39.702;2023-07-13T07:19:34;3.17;;;1.40;;
52650;SDS011;38537;47.226;39.702;2023-07-13T07:22:02;2.92;;;1.30;;
52650;SDS011;38537;47.226;39.702;2023-07-13T07:24:30;3.47;;;1.30;;
52650;SDS011;38537;47.226;39.702;2023-07-13T07:26:57;1.70;;;1.50;;
52650;SDS011;38537;47.226;39.702;2023-07-13T07:29:28;1.92;;;1.42;;
52650;SDS011;38537;47.226;39.702;2023-07-13T07:31:58;2.60;;;1.50;;
52650;SDS011;38537;47.226;39.702;2023-07-13T07:34:44;2.05;;;1.50;;
52650;SDS011;38537;47.226;39.702;2023-07-13T07:37:12;3.50;;;1.80;;
52650;SDS011;38537;47.226;39.702;2023-07-13T07:39:44;3.75;;;1.77;;
52650;SDS011;38537;47.226;39.702;2023-07-13T07:42:32;2.72;;;1.40;;
52650;SDS011;38537;47.226;39.702;2023-07-13T07:44:59;3.45;;;1.67;;
52650;SDS011;38537;47.226;39.702;2023-07-13T07:47:30;3.83;;;1.90;;
52650;SDS011;38537;47.226;39.702;2023-07-13T07:50:00;2.22;;;1.65;;
52650;SDS011;38537;47.226;39.702;2023-07-13T07:52:29;2.53;;;2.03;;
52650;SDS011;38537;47.226;39.702;2023-07-13T07:54:56;2.10;;;1.90;;
52650;SDS011;38537;47.226;39.702;2023-07-13T07:57:45;3.83;;;2.00;;
52650;SDS011;38537;47.226;39.702;2023-07-13T08:00:15;2.35;;;2.10;;
52650;SDS011;38537;47.226;39.702;2023-07-13T08:02:46;4.00;;;1.80;;
52650;SDS011;38537;47.226;39.702;2023-07-13T08:05:19;2.75;;;1.70;;
52650;SDS011;38537;47.226;39.702;2023-07-13T08:08:06;2.80;;;1.85;;
52650;SDS011;38537;47.226;39.702;2023-07-13T08:10:35;3.70;;;2.00;;
52650;SDS011;38537;47.226;39.702;2023-07-13T08:13:05;3.15;;;1.90;;
52650;SDS011;38537;47.226;39.702;2023-07-13T08:15:36;3.78;;;1.80;;
52650;SDS011;38537;47.226;39.702;2023-07-13T08:18:03;3.90;;;1.98;;
52650;SDS011;38537;47.226;39.702;2023-07-13T08:20:31;2.75;;;1.85;;
52650;SDS011;38537;47.226;39.702;2023-07-13T08:22:59;2.25;;;1.70;;
52650;SDS011;38537;47.226;39.702;2023-07-13T08:25:26;8.02;;;1.73;;
52650;SDS011;38537;47.226;39.702;2023-07-13T08:27:54;2.80;;;1.60;;
52650;SDS011;38537;47.226;39.702;2023-07-13T08:30:25;4.10;;;1.83;;
52650;SDS011;38537;47.226;39.702;2023-07-13T08:32:53;5.55;;;1.95;;
52650;SDS011;38537;47.226;39.702;2023-07-13T08:35:20;7.45;;;1.98;;
52650;SDS011;38537;47.226;39.702;2023-07-13T08:37:51;3.05;;;1.70;;
52650;SDS011;38537;47.226;39.702;2023-07-13T08:40:19;3.38;;;1.73;;
52650;SDS011;38537;47.226;39.702;2023-07-13T08:42:55;3.08;;;1.80;;
52650;SDS011;38537;47.226;39.702;2023-07-13T08:45:30;5.03;;;2.10;;
52650;SDS011;38537;47.226;39.702;2023-07-13T08:48:14;6.45;;;2.38;;
52650;SDS011;38537;47.226;39.702;2023-07-13T08:50:58;3.45;;;2.08;;
52650;SDS011;38537;47.226;39.702;2023-07-13T08:53:49;4.28;;;2.17;;
52650;SDS011;38537;47.226;39.702;2023-07-13T08:56:24;5.65;;;2.28;;
52650;SDS011;38537;47.226;39.702;2023-07-13T08:58:57;4.85;;;2.05;;
52650;SDS011;38537;47.226;39.702;2023-07-13T09:04:21;5.50;;;2.30;;
52650;SDS011;38537;47.226;39.702;2023-07-13T09:15:17;3.83;;;1.70;;
52650;SDS011;38537;47.226;39.702;2023-07-13T09:17:52;10.00;;;3.00;;
52650;SDS011;38537;47.226;39.702;2023-07-13T09:20:36;2.90;;;1.70;;
52650;SDS011;38537;47.226;39.702;2023-07-13T09:25:43;5.30;;;2.33;;
52650;SDS011;38537;47.226;39.702;2023-07-13T09:28:25;2.10;;;1.60;;
52650;SDS011;38537;47.226;39.702;2023-07-13T09:31:01;7.18;;;3.90;;
52650;SDS011;38537;47.226;39.702;2023-07-13T09:33:38;13.20;;;2.33;;
52650;SDS011;38537;47.226;39.702;2023-07-13T09:41:45;6.15;;;2.30;;
52650;SDS011;38537;47.226;39.702;2023-07-13T09:46:58;2.80;;;1.70;;
52650;SDS011;38537;47.226;39.702;2023-07-13T09:49:28;5.15;;;2.00;;
52650;SDS011;38537;47.226;39.702;2023-07-13T09:52:06;2.58;;;1.70;;
52650;SDS011;38537;47.226;39.702;2023-07-13T09:54:43;3.05;;;1.70;;
52650;SDS011;38537;47.226;39.702;2023-07-13T09:57:13;2.75;;;1.60;;
52650;SDS011;38537;47.226;39.702;2023-07-13T09:59:47;3.90;;;1.73;;
52650;SDS011;38537;47.226;39.702;2023-07-13T10:05:02;6.28;;;1.92;;
52650;SDS011;38537;47.226;39.702;2023-07-13T10:07:38;5.40;;;1.87;;
52650;SDS011;38537;47.226;39.702;2023-07-13T10:10:14;3.03;;;1.80;;
52650;SDS011;38537;47.226;39.702;2023-07-13T10:12:44;4.35;;;1.98;;
52650;SDS011;38537;47.226;39.702;2023-07-13T10:15:16;4.35;;;1.80;;
52650;SDS011;38537;47.226;39.702;2023-07-13T10:17:52;4.13;;;1.70;;
52650;SDS011;38537;47.226;39.702;2023-07-13T10:20:21;6.00;;;2.13;;
52650;SDS011;38537;47.226;39.702;2023-07-13T10:22:57;4.35;;;2.00;;
52650;SDS011;38537;47.226;39.702;2023-07-13T10:25:33;3.08;;;2.00;;
52650;SDS011;38537;47.226;39.702;2023-07-13T10:30:59;2.63;;;1.90;;
52650;SDS011;38537;47.226;39.702;2023-07-13T10:33:28;3.80;;;1.95;;
52650;SDS011;38537;47.226;39.702;2023-07-13T10:36:09;3.53;;;1.80;;
52650;SDS011;38537;47.226;39.702;2023-07-13T10:38:45;5.13;;;1.80;;
52650;SDS011;38537;47.226;39.702;2023-07-13T10:41:17;2.92;;;1.75;;
52650;SDS011;38537;47.226;39.702;2023-07-13T10:43:49;2.88;;;1.67;;
52650;SDS011;38537;47.226;39.702;2023-07-13T10:46:20;4.55;;;1.90;;
52650;SDS011;38537;47.226;39.702;2023-07-13T10:48:52;4.18;;;2.00;;
52650;SDS011;38537;47.226;39.702;2023-07-13T10:54:27;4.53;;;1.80;;
52650;SDS011;38537;47.226;39.702;2023-07-13T10:57:06;3.67;;;1.63;;
52650;SDS011;38537;47.226;39.702;2023-07-13T10:59:49;3.60;;;1.85;;
52650;SDS011;38537;47.226;39.702;2023-07-13T11:02:42;3.13;;;2.00;;
52650;SDS011;38537;47.226;39.702;2023-07-13T11:05:26;4.43;;;1.70;;
52650;SDS011;38537;47.226;39.702;2023-07-13T11:08:20;5.22;;;2.00;;
52650;SDS011;38537;47.226;39.702;2023-07-13T11:18:50;3.05;;;1.80;;
52650;SDS011;38537;47.226;39.702;2023-07-13T11:21:18;3.45;;;1.70;;
52650;SDS011;38537;47.226;39.702;2023-07-13T11:29:24;3.20;;;1.67;;
52650;SDS011;38537;47.226;39.702;2023-07-13T11:34:54;3.83;;;2.20;;
52650;SDS011;38537;47.226;39.702;2023-07-13T11:37:21;6.82;;;2.65;;
52650;SDS011;38537;47.226;39.702;2023-07-13T11:39:50;7.63;;;2.53;;
52650;SDS011;38537;47.226;39.702;2023-07-13T11:42:20;4.65;;;2.20;;
52650;SDS011;38537;47.226;39.702;2023-07-13T11:44:49;4.85;;;2.00;;
52650;SDS011;38537;47.226;39.702;2023-07-13T11:47:39;5.20;;;2.20;;
52650;SDS011;38537;47.226;39.702;2023-07-13T11:50:18;5.75;;;2.00;;
52650;SDS011;38537;47.226;39.702;2023-07-13T11:52:47;3.50;;;2.20;;
52650;SDS011;38537;47.226;39.702;2023-07-13T11:55:18;3.17;;;1.88;;
52650;SDS011;38537;47.226;39.702;2023-07-13T11:57:56;3.20;;;1.73;;
52650;SDS011;38537;47.226;39.702;2023-07-13T12:00:31;5.28;;;1.80;;
52650;SDS011;38537;47.226;39.702;2023-07-13T12:03:01;3.30;;;2.00;;
52650;SDS011;38537;47.226;39.702;2023-07-13T12:05:32;2.70;;;1.88;;
52650;SDS011;38537;47.226;39.702;2023-07-13T12:07:59;4.70;;;2.30;;
52650;SDS011;38537;47.226;39.702;2023-07-13T12:10:56;5.40;;;1.77;;
52650;SDS011;38537;47.226;39.702;2023-07-13T12:13:27;3.10;;;2.03;;
52650;SDS011;38537;47.226;39.702;2023-07-13T12:15:57;4.88;;;2.13;;
52650;SDS011;38537;47.226;39.702;2023-07-13T12:18:28;4.82;;;1.92;;
52650;SDS011;38537;47.226;39.702;2023-07-13T12:25:58;6.00;;;2.75;;
52650;SDS011;38537;47.226;39.702;2023-07-13T12:33:57;5.57;;;2.40;;
52650;SDS011;38537;47.226;39.702;2023-07-13T12:36:25;7.40;;;2.58;;
52650;SDS011;38537;47.226;39.702;2023-07-13T12:38:56;5.47;;;2.38;;
52650;SDS011;38537;47.226;39.702;2023-07-13T12:41:31;5.95;;;2.25;;
52650;SDS011;38537;47.226;39.702;2023-07-13T12:44:00;4.70;;;2.10;;
52650;SDS011;38537;47.226;39.702;2023-07-13T12:46:27;3.40;;;2.38;;
52650;SDS011;38537;47.226;39.702;2023-07-13T12:48:57;5.55;;;2.20;;
52650;SDS011;38537;47.226;39.702;2023-07-13T12:51:43;3.03;;;1.90;;
52650;SDS011;38537;47.226;39.702;2023-07-13T12:54:20;2.00;;;1.52;;
52650;SDS011;38537;47.226;39.702;2023-07-13T12:56:51;3.42;;;2.10;;
52650;SDS011;38537;47.226;39.702;2023-07-13T12:59:21;3.50;;;1.83;;
52650;SDS011;38537;47.226;39.702;2023-07-13T13:01:49;3.42;;;2.28;;
52650;SDS011;38537;47.226;39.702;2023-07-13T13:04:17;4.63;;;1.95;;
52650;SDS011;38537;47.226;39.702;2023-07-13T13:06:49;5.25;;;1.80;;
52650;SDS011;38537;47.226;39.702;2023-07-13T13:09:27;4.15;;;2.00;;
52650;SDS011;38537;47.226;39.702;2023-07-13T13:11:55;2.55;;;1.80;;
52650;SDS011;38537;47.226;39.702;2023-07-13T13:14:22;3.90;;;1.67;;
52650;SDS011;38537;47.226;39.702;2023-07-13T13:16:50;4.40;;;1.73;;
52650;SDS011;38537;47.226;39.702;2023-07-13T13:19:22;3.42;;;1.80;;
52650;SDS011;38537;47.226;39.702;2023-07-13T13:21:52;3.25;;;1.90;;
52650;SDS011;38537;47.226;39.702;2023-07-13T13:24:24;4.93;;;1.80;;
52650;SDS011;38537;47.226;39.702;2023-07-13T13:26:54;2.90;;;2.00;;
52650;SDS011;38537;47.226;39.702;2023-07-13T13:29:24;3.00;;;1.95;;
52650;SDS011;38537;47.226;39.702;2023-07-13T13:31:53;2.83;;;2.00;;
52650;SDS011;38537;47.226;39.702;2023-07-13T13:34:22;3.65;;;2.22;;
52650;SDS011;38537;47.226;39.702;2023-07-13T13:36:50;3.38;;;2.20;;
52650;SDS011;38537;47.226;39.702;2023-07-13T13:39:30;5.35;;;2.30;;
52650;SDS011;38537;47.226;39.702;2023-07-13T13:42:01;2.95;;;1.70;;
52650;SDS011;38537;47.226;39.702;2023-07-13T13:44:29;4.28;;;2.22;;
52650;SDS011;38537;47.226;39.702;2023-07-13T13:46:56;2.50;;;1.80;;
52650;SDS011;38537;47.226;39.702;2023-07-13T13:49:25;2.92;;;1.92;;
52650;SDS011;38537;47.226;39.702;2023-07-13T13:51:54;3.28;;;1.65;;
52650;SDS011;38537;47.226;39.702;2023-07-13T13:54:23;3.13;;;1.85;;
52650;SDS011;38537;47.226;39.702;2023-07-13T13:56:52;2.42;;;1.70;;
52650;SDS011;38537;47.226;39.702;2023-07-13T13:59:20;7.53;;;1.90;;
52650;SDS011;38537;47.226;39.702;2023-07-13T14:01:47;2.45;;;1.90;;
52650;SDS011;38537;47.226;39.702;2023-07-13T14:04:20;2.92;;;1.67;;
52650;SDS011;38537;47.226;39.702;2023-07-13T14:06:48;3.33;;;2.08;;
52650;SDS011;38537;47.226;39.702;2023-07-13T14:09:18;2.58;;;1.77;;
52650;SDS011;38537;47.226;39.702;2023-07-13T14:11:47;4.88;;;2.00;;
52650;SDS011;38537;47.226;39.702;2023-07-13T14:14:19;2.88;;;1.60;;
52650;SDS011;38537;47.226;39.702;2023-07-13T14:16:51;2.85;;;1.95;;
52650;SDS011;38537;47.226;39.702;2023-07-13T14:19:22;1.70;;;1.60;;
52650;SDS011;38537;47.226;39.702;2023-07-13T14:21:49;2.40;;;1.80;;
52650;SDS011;38537;47.226;39.702;2023-07-13T14:24:20;3.67;;;2.05;;
52650;SDS011;38537;47.226;39.702;2023-07-13T14:26:48;2.90;;;1.90;;
52650;SDS011;38537;47.226;39.702;2023-07-13T14:29:17;2.72;;;1.60;;
52650;SDS011;38537;47.226;39.702;2023-07-13T14:31:51;2.10;;;1.80;;
52650;SDS011;38537;47.226;39.702;2023-07-13T14:34:20;2.70;;;1.80;;
52650;SDS011;38537;47.226;39.702;2023-07-13T14:36:47;5.13;;;2.17;;
52650;SDS011;38537;47.226;39.702;2023-07-13T14:39:18;4.47;;;2.00;;
52650;SDS011;38537;47.226;39.702;2023-07-13T14:41:52;3.60;;;1.80;;
52650;SDS011;38537;47.226;39.702;2023-07-13T14:44:22;4.38;;;2.20;;
52650;SDS011;38537;47.226;39.702;2023-07-13T14:46:52;3.83;;;2.17;;
52650;SDS011;38537;47.226;39.702;2023-07-13T14:49:30;2.92;;;1.90;;
52650;SDS011;38537;47.226;39.702;2023-07-13T14:52:03;3.58;;;1.98;;
52650;SDS011;38537;47.226;39.702;2023-07-13T14:54:40;3.78;;;1.80;;
52650;SDS011;38537;47.226;39.702;2023-07-13T14:57:11;3.75;;;2.00;;
52650;SDS011;38537;47.226;39.702;2023-07-13T14:59:43;3.95;;;2.00;;
52650;SDS011;38537;47.226;39.702;2023-07-13T15:02:14;3.78;;;2.20;;
52650;SDS011;38537;47.226;39.702;2023-07-13T15:04:45;8.02;;;2.20;;
52650;SDS011;38537;47.226;39.702;2023-07-13T15:07:13;5.03;;;2.33;;
52650;SDS011;38537;47.226;39.702;2023-07-13T15:09:42;3.47;;;2.17;;
52650;SDS011;38537;47.226;39.702;2023-07-13T15:12:10;3.22;;;2.83;;
52650;SDS011;38537;47.226;39.702;2023-07-13T15:14:37;4.22;;;3.58;;
52650;SDS011;38537;47.226;39.702;2023-07-13T15:17:23;3.67;;;3.00;;
52650;SDS011;38537;47.226;39.702;2023-07-13T15:20:45;4.10;;;2.55;;
52650;SDS011;38537;47.226;39.702;2023-07-13T15:23:00;5.43;;;3.58;;
52650;SDS011;38537;47.226;39.702;2023-07-13T15:25:30;3.25;;;2.35;;
52650;SDS011;38537;47.226;39.702;2023-07-13T15:28:00;3.20;;;1.92;;
52650;SDS011;38537;47.226;39.702;2023-07-13T15:30:29;8.27;;;3.17;;
52650;SDS011;38537;47.226;39.702;2023-07-13T15:33:05;6.22;;;4.15;;
52650;SDS011;38537;47.226;39.702;2023-07-13T15:35:40;6.05;;;4.05;;
52650;SDS011;38537;47.226;39.702;2023-07-13T15:38:15;4.18;;;3.17;;
52650;SDS011;38537;47.226;39.702;2023-07-13T15:40:44;6.10;;;2.05;;
52650;SDS011;38537;47.226;39.702;2023-07-13T15:43:12;5.40;;;3.08;;
52650;SDS011;38537;47.226;39.702;2023-07-13T15:45:40;4.00;;;3.60;;
52650;SDS011;38537;47.226;39.702;2023-07-13T15:50:51;5.32;;;3.03;;
52650;SDS011;38537;47.226;39.702;2023-07-13T15:53:25;2.72;;;2.10;;
52650;SDS011;38537;47.226;39.702;2023-07-13T15:55:57;6.10;;;2.72;;
52650;SDS011;38537;47.226;39.702;2023-07-13T15:58:27;3.60;;;2.78;;
52650;SDS011;38537;47.226;39.702;2023-07-13T16:00:55;2.75;;;2.15;;